Time;durP1;ratioP1;P1;durP2;ratioP2;P2;SDS_P1;SDS_P2;PMS_P1;PMS_P2;Temp;Humidity;BMP_temperature;BMP_pressure;BME280_temperature;BME280_humidity;BME280_pressure;Samples;Min_cycle;Max_cycle;Signal;HPM_P1;HPM_P2
2023/04/07 00:01:41;;;;;;;13.55;12.88;;;;;;;;;;4244965;28;20110;-64
2023/04/07 00:04:01;;;;;;;12.02;11.48;;;;;;;;;;4249122;28;20050;-64
2023/04/07 00:06:22;;;;;;;11.85;11.25;;;;;;;;;;4248625;28;20050;-64
2023/04/07 00:08:42;;;;;;;13.48;12.63;;;;;;;;;;4247269;28;20400;-64
2023/04/07 00:11:02;;;;;;;15.23;14.13;;;;;;;;;;4246351;28;20050;-64
2023/04/07 00:13:22;;;;;;;13.68;12.88;;;;;;;;;;4248612;28;20390;-64
2023/04/07 00:15:42;;;;;;;13.50;12.75;;;;;;;;;;4246151;28;20050;-64
2023/04/07 00:18:02;;;;;;;13.88;13.07;;;;;;;;;;4245857;28;20046;-64
2023/04/07 00:20:23;;;;;;;13.68;12.98;;;;;;;;;;4248063;28;20377;-64
2023/04/07 00:22:43;;;;;;;14.45;13.55;;;;;;;;;;4246644;28;20273;-64
2023/04/07 00:25:04;;;;;;;15.35;14.48;;;;;;;;;;4249553;28;20368;-64
2023/04/07 00:27:25;;;;;;;15.05;14.10;;;;;;;;;;4253576;28;20256;-64
2023/04/07 00:29:45;;;;;;;13.30;12.35;;;;;;;;;;4247435;28;20121;-64
2023/04/07 00:32:06;;;;;;;14.25;13.43;;;;;;;;;;4251797;28;20062;-64
2023/04/07 00:34:26;;;;;;;13.77;13.18;;;;;;;;;;4250940;28;20049;-64
2023/04/07 00:36:50;;;;;;;18.83;16.80;;;;;;;;;;4251218;28;20415;-64
2023/04/07 00:39:11;;;;;;;14.85;13.85;;;;;;;;;;4244476;28;20059;-64
2023/04/07 00:41:33;;;;;;;14.45;13.57;;;;;;;;;;4251704;28;20265;-64
2023/04/07 00:43:54;;;;;;;80.95;45.70;;;;;;;;;;4248573;28;20111;-64
2023/04/07 00:46:14;;;;;;;59.80;35.38;;;;;;;;;;4249153;28;20242;-64
2023/04/07 00:48:36;;;;;;;21.17;19.27;;;;;;;;;;4250192;28;20276;-64
2023/04/07 00:50:56;;;;;;;23.58;17.67;;;;;;;;;;4248147;28;20074;-64
2023/04/07 00:53:17;;;;;;;20.13;18.25;;;;;;;;;;4245125;28;20128;-64
2023/04/07 00:55:38;;;;;;;22.20;20.15;;;;;;;;;;4248849;28;20073;-64
2023/04/07 00:57:58;;;;;;;25.20;22.55;;;;;;;;;;4242470;28;20116;-64
2023/04/07 01:00:18;;;;;;;20.52;18.88;;;;;;;;;;4248263;28;20320;-64
2023/04/07 01:02:44;;;;;;;21.58;19.77;;;;;;;;;;4244062;28;20121;-64
2023/04/07 01:05:11;;;;;;;18.55;16.95;;;;;;;;;;4247920;28;20085;-64
2023/04/07 01:07:38;;;;;;;16.35;15.13;;;;;;;;;;4244508;28;20050;-64
2023/04/07 01:10:01;;;;;;;14.88;14.07;;;;;;;;;;4247823;28;20088;-64
2023/04/07 01:12:33;;;;;;;15.15;14.43;;;;;;;;;;4251287;28;20126;-64
2023/04/07 01:14:55;;;;;;;13.85;13.05;;;;;;;;;;4248104;28;20112;-64
2023/04/07 01:17:15;;;;;;;13.65;12.95;;;;;;;;;;4244460;28;20403;-64
2023/04/07 01:19:36;;;;;;;13.80;13.10;;;;;;;;;;4244366;28;20043;-64
2023/04/07 01:21:57;;;;;;;13.50;12.82;;;;;;;;;;4250573;28;20046;-64
2023/04/07 01:24:29;;;;;;;14.73;13.73;;;;;;;;;;4249935;28;20172;-64
2023/04/07 01:26:50;;;;;;;13.00;12.30;;;;;;;;;;4245280;28;20087;-64
2023/04/07 01:29:26;;;;;;;13.18;12.20;;;;;;;;;;4245416;28;20093;-64
2023/04/07 01:31:48;;;;;;;14.32;13.70;;;;;;;;;;4246020;28;20050;-64
2023/04/07 01:34:10;;;;;;;15.33;14.00;;;;;;;;;;4249647;28;20381;-64
2023/04/07 01:36:31;;;;;;;15.63;14.80;;;;;;;;;;4248396;28;20080;-64
2023/04/07 01:38:51;;;;;;;14.88;13.98;;;;;;;;;;4249655;28;20054;-64
2023/04/07 01:41:14;;;;;;;14.60;13.73;;;;;;;;;;4245355;28;20042;-64
2023/04/07 01:43:36;;;;;;;15.18;14.43;;;;;;;;;;4249754;28;20104;-64
2023/04/07 01:45:57;;;;;;;14.65;13.70;;;;;;;;;;4253170;28;20061;-64
2023/04/07 01:48:17;;;;;;;14.27;13.73;;;;;;;;;;4249777;28;20080;-65
2023/04/07 01:50:38;;;;;;;14.02;13.25;;;;;;;;;;4249149;28;20365;-65
2023/04/07 01:52:58;;;;;;;14.43;13.57;;;;;;;;;;4243145;28;20058;-65
2023/04/07 01:55:19;;;;;;;13.32;12.85;;;;;;;;;;4245400;28;20444;-65
2023/04/07 01:57:39;;;;;;;14.65;13.73;;;;;;;;;;4248927;28;20289;-65
2023/04/07 02:00:00;;;;;;;14.20;13.27;;;;;;;;;;4248076;28;20100;-64
2023/04/07 02:02:20;;;;;;;15.65;14.85;;;;;;;;;;4245462;28;20457;-64
2023/04/07 02:04:50;;;;;;;14.65;13.88;;;;;;;;;;4252092;28;20280;-64
2023/04/07 02:07:14;;;;;;;15.23;14.13;;;;;;;;;;4246008;28;20050;-64
2023/04/07 02:09:35;;;;;;;12.90;12.23;;;;;;;;;;4246430;28;20415;-64
2023/04/07 02:11:57;;;;;;;15.02;14.05;;;;;;;;;;4247545;28;20081;-64
2023/04/07 02:14:20;;;;;;;13.73;13.02;;;;;;;;;;4244494;28;20093;-64
2023/04/07 02:16:40;;;;;;;12.95;12.45;;;;;;;;;;4244526;28;20054;-64
2023/04/07 02:19:02;;;;;;;13.13;12.23;;;;;;;;;;4246526;28;20320;-64
2023/04/07 02:21:23;;;;;;;13.50;12.93;;;;;;;;;;4246173;28;20043;-64
2023/04/07 02:23:44;;;;;;;14.57;13.57;;;;;;;;;;4245238;28;20128;-64
2023/04/07 02:26:05;;;;;;;12.20;11.70;;;;;;;;;;4244566;28;20112;-64
2023/04/07 02:28:25;;;;;;;13.80;12.95;;;;;;;;;;4247332;28;20099;-64
2023/04/07 02:30:45;;;;;;;13.13;12.32;;;;;;;;;;4245051;28;20050;-65
2023/04/07 02:33:05;;;;;;;16.40;15.27;;;;;;;;;;4251370;28;20039;-65
2023/04/07 02:35:26;;;;;;;14.52;13.70;;;;;;;;;;4244710;28;20050;-65
2023/04/07 02:37:49;;;;;;;12.63;11.98;;;;;;;;;;4248923;28;20054;-65
2023/04/07 02:40:09;;;;;;;13.38;12.27;;;;;;;;;;4245923;28;20071;-65
2023/04/07 02:42:30;;;;;;;14.68;13.82;;;;;;;;;;4250246;28;20112;-65
2023/04/07 02:44:50;;;;;;;13.95;13.20;;;;;;;;;;4244247;28;20078;-65
2023/04/07 02:47:11;;;;;;;13.75;12.95;;;;;;;;;;4251516;28;20411;-65
2023/04/07 02:49:31;;;;;;;12.82;12.20;;;;;;;;;;4247466;28;20080;-65
2023/04/07 02:51:51;;;;;;;14.15;13.48;;;;;;;;;;4244194;28;20113;-65
2023/04/07 02:54:11;;;;;;;16.10;15.27;;;;;;;;;;4242103;28;20231;-64
2023/04/07 02:56:32;;;;;;;13.32;12.82;;;;;;;;;;4245476;28;20374;-64
2023/04/07 02:58:52;;;;;;;13.73;13.00;;;;;;;;;;4246169;28;20058;-64
2023/04/07 03:01:12;;;;;;;14.38;13.43;;;;;;;;;;4245014;28;20315;-64
2023/04/07 03:03:33;;;;;;;13.55;12.98;;;;;;;;;;4242926;28;20045;-64
2023/04/07 03:05:53;;;;;;;15.15;14.45;;;;;;;;;;4243225;28;20050;-64
2023/04/07 03:08:13;;;;;;;16.00;15.27;;;;;;;;;;4243155;28;20096;-64
2023/04/07 03:10:34;;;;;;;18.00;17.30;;;;;;;;;;4243362;28;20270;-64
2023/04/07 03:12:55;;;;;;;18.30;17.73;;;;;;;;;;4243875;28;20046;-64
2023/04/07 03:15:15;;;;;;;23.00;22.10;;;;;;;;;;4242353;28;20047;-64
2023/04/07 03:17:39;;;;;;;18.15;17.35;;;;;;;;;;4238938;28;20070;-65
2023/04/07 03:19:59;;;;;;;16.23;15.55;;;;;;;;;;4245875;28;20107;-64
2023/04/07 03:22:20;;;;;;;16.13;15.52;;;;;;;;;;4244215;28;20269;-57
2023/04/07 03:24:40;;;;;;;15.02;14.20;;;;;;;;;;4250854;28;20276;-56
2023/04/07 03:27:01;;;;;;;12.98;12.45;;;;;;;;;;4249035;28;20403;-56
2023/04/07 03:29:21;;;;;;;14.40;13.90;;;;;;;;;;4246716;28;20050;-56
2023/04/07 03:31:41;;;;;;;15.48;14.85;;;;;;;;;;4244148;28;20260;-56
2023/04/07 03:34:01;;;;;;;16.33;15.65;;;;;;;;;;4250676;27;20047;-56
2023/04/07 03:36:23;;;;;;;15.02;14.48;;;;;;;;;;4245091;28;20388;-56
2023/04/07 03:38:43;;;;;;;14.27;13.75;;;;;;;;;;4245790;28;20050;-56
2023/04/07 03:41:03;;;;;;;13.80;13.27;;;;;;;;;;4239489;28;20051;-56
2023/04/07 03:43:24;;;;;;;14.45;13.98;;;;;;;;;;4250651;28;20392;-56
2023/04/07 03:45:44;;;;;;;14.43;13.85;;;;;;;;;;4245820;28;20370;-56
2023/04/07 03:48:05;;;;;;;15.20;14.38;;;;;;;;;;4247231;28;20055;-56
2023/04/07 03:50:25;;;;;;;13.98;13.43;;;;;;;;;;4249516;28;20039;-56
2023/04/07 03:52:46;;;;;;;15.45;14.65;;;;;;;;;;4244038;28;20365;-56
2023/04/07 03:55:06;;;;;;;15.27;14.82;;;;;;;;;;4244071;28;20051;-56
2023/04/07 03:57:27;;;;;;;14.65;13.98;;;;;;;;;;4247805;28;20050;-56
2023/04/07 03:59:49;;;;;;;15.98;15.35;;;;;;;;;;4248225;28;20073;-57
2023/04/07 04:02:10;;;;;;;15.68;14.82;;;;;;;;;;4243208;28;20269;-56
2023/04/07 04:04:30;;;;;;;15.60;14.95;;;;;;;;;;4249627;28;20054;-56
2023/04/07 04:06:51;;;;;;;14.45;13.80;;;;;;;;;;4246663;28;20278;-56
2023/04/07 04:09:11;;;;;;;17.02;16.23;;;;;;;;;;4245374;28;20050;-56
2023/04/07 04:11:32;;;;;;;16.90;15.77;;;;;;;;;;4245186;28;20055;-55
2023/04/07 04:13:52;;;;;;;24.40;23.45;;;;;;;;;;4243107;28;20039;-57
2023/04/07 04:16:13;;;;;;;34.05;32.67;;;;;;;;;;4247704;28;20054;-56
2023/04/07 04:18:35;;;;;;;39.00;37.28;;;;;;;;;;4243044;28;20051;-56
2023/04/07 04:20:55;;;;;;;41.25;39.28;;;;;;;;;;4232564;28;20051;-55
2023/04/07 04:23:15;;;;;;;35.38;33.88;;;;;;;;;;4241999;28;20051;-56
2023/04/07 04:25:38;;;;;;;31.90;30.75;;;;;;;;;;4247841;28;20116;-56
2023/04/07 04:27:58;;;;;;;21.17;20.08;;;;;;;;;;4243616;28;20065;-56
2023/04/07 04:30:18;;;;;;;18.77;17.88;;;;;;;;;;4244563;28;20333;-56
2023/04/07 04:32:39;;;;;;;21.02;20.05;;;;;;;;;;4247076;28;20106;-56
2023/04/07 04:35:00;;;;;;;20.27;19.48;;;;;;;;;;4250211;28;20058;-56
2023/04/07 04:37:21;;;;;;;15.63;15.13;;;;;;;;;;4247412;28;20066;-57
2023/04/07 04:39:41;;;;;;;18.13;17.17;;;;;;;;;;4251946;28;20039;-56
2023/04/07 04:42:02;;;;;;;17.65;16.80;;;;;;;;;;4252118;28;20386;-56
2023/04/07 04:44:22;;;;;;;17.05;16.10;;;;;;;;;;4249907;28;20042;-56
2023/04/07 04:46:43;;;;;;;14.18;13.77;;;;;;;;;;4250599;27;20058;-56
2023/04/07 04:49:03;;;;;;;16.83;16.10;;;;;;;;;;4250452;28;20144;-56
2023/04/07 04:51:23;;;;;;;14.57;14.05;;;;;;;;;;4246501;28;20080;-57
2023/04/07 04:53:44;;;;;;;19.00;17.25;;;;;;;;;;4247625;28;20046;-56
2023/04/07 04:56:05;;;;;;;90.57;55.83;;;;;;;;;;4247299;28;20294;-56
2023/04/07 04:58:25;;;;;;;25.38;23.17;;;;;;;;;;4250659;28;20048;-56
2023/04/07 05:00:46;;;;;;;29.60;27.27;;;;;;;;;;4243694;28;20085;-56
2023/04/07 05:03:06;;;;;;;23.42;21.92;;;;;;;;;;4242376;28;20086;-56
2023/04/07 05:05:27;;;;;;;21.98;20.60;;;;;;;;;;4247726;28;20047;-56
2023/04/07 05:07:47;;;;;;;21.33;19.88;;;;;;;;;;4248065;28;20046;-56
2023/04/07 05:10:07;;;;;;;38.65;36.13;;;;;;;;;;4244571;28;20046;-56
2023/04/07 05:12:28;;;;;;;42.90;40.58;;;;;;;;;;4249956;28;20103;-56
2023/04/07 05:14:48;;;;;;;43.08;40.58;;;;;;;;;;4245456;28;20075;-56
2023/04/07 05:17:08;;;;;;;43.20;40.70;;;;;;;;;;4251452;28;20058;-56
2023/04/07 05:19:28;;;;;;;49.45;46.47;;;;;;;;;;4245143;28;20046;-57
2023/04/07 05:21:52;;;;;;;44.88;42.22;;;;;;;;;;4251370;28;20292;-57
2023/04/07 05:24:12;;;;;;;43.90;41.60;;;;;;;;;;4230571;28;20042;-56
2023/04/07 05:26:32;;;;;;;38.60;36.83;;;;;;;;;;4248077;28;20377;-56
2023/04/07 05:28:52;;;;;;;22.90;21.65;;;;;;;;;;4245018;28;20074;-56
2023/04/07 05:31:12;;;;;;;19.10;18.15;;;;;;;;;;4245012;28;20251;-56
2023/04/07 05:33:33;;;;;;;19.85;18.48;;;;;;;;;;4244428;28;20227;-57
2023/04/07 05:35:53;;;;;;;19.85;17.80;;;;;;;;;;4246331;27;20150;-57
2023/04/07 05:38:15;;;;;;;16.98;15.98;;;;;;;;;;4249202;28;20358;-56
2023/04/07 05:40:35;;;;;;;19.52;17.65;;;;;;;;;;4248882;28;20277;-57
2023/04/07 05:42:57;;;;;;;27.77;24.92;;;;;;;;;;4252413;28;20062;-57
2023/04/07 05:45:17;;;;;;;27.08;24.48;;;;;;;;;;4246858;28;20050;-57
2023/04/07 05:47:38;;;;;;;18.92;17.27;;;;;;;;;;4252372;28;20055;-56
2023/04/07 05:49:58;;;;;;;22.50;20.15;;;;;;;;;;4248656;28;20058;-56
2023/04/07 05:52:18;;;;;;;14.88;13.95;;;;;;;;;;4232325;28;20046;-56
2023/04/07 05:54:39;;;;;;;17.85;16.70;;;;;;;;;;4243651;28;20085;-57
2023/04/07 05:57:00;;;;;;;21.75;18.15;;;;;;;;;;4250727;27;20042;-56
2023/04/07 05:59:20;;;;;;;18.10;16.90;;;;;;;;;;4250373;28;20259;-57
2023/04/07 06:01:41;;;;;;;16.83;15.82;;;;;;;;;;4249726;28;20239;-57
2023/04/07 06:04:03;;;;;;;17.52;16.33;;;;;;;;;;4249307;28;20042;-56
2023/04/07 06:06:23;;;;;;;17.95;16.73;;;;;;;;;;4250665;28;20051;-56
2023/04/07 06:08:43;;;;;;;20.75;19.35;;;;;;;;;;4250173;28;20033;-57
2023/04/07 06:11:04;;;;;;;19.20;17.90;;;;;;;;;;4234270;28;20046;-56
2023/04/07 06:13:25;;;;;;;19.40;17.45;;;;;;;;;;4248590;28;20081;-57
2023/04/07 06:15:45;;;;;;;21.35;19.60;;;;;;;;;;4244758;28;20062;-56
2023/04/07 06:18:06;;;;;;;23.45;21.17;;;;;;;;;;4245273;28;20099;-56
2023/04/07 06:20:26;;;;;;;21.98;20.23;;;;;;;;;;4246091;28;20102;-57
2023/04/07 06:22:47;;;;;;;21.08;19.02;;;;;;;;;;4248947;28;20046;-57
2023/04/07 06:25:07;;;;;;;18.90;17.42;;;;;;;;;;4243943;28;20074;-57
2023/04/07 06:27:28;;;;;;;18.98;18.00;;;;;;;;;;4246966;28;20380;-56
2023/04/07 06:29:48;;;;;;;17.23;16.02;;;;;;;;;;4246236;28;20130;-56
2023/04/07 06:32:08;;;;;;;15.20;14.43;;;;;;;;;;4246771;28;20077;-57
2023/04/07 06:34:28;;;;;;;15.57;14.30;;;;;;;;;;4243239;28;20096;-57
2023/04/07 06:36:49;;;;;;;13.13;12.52;;;;;;;;;;4249033;27;20302;-57
2023/04/07 06:39:09;;;;;;;12.70;11.85;;;;;;;;;;4246599;28;20080;-57
2023/04/07 06:41:30;;;;;;;16.92;15.55;;;;;;;;;;4249589;28;20145;-57
2023/04/07 06:43:50;;;;;;;14.52;13.40;;;;;;;;;;4242544;28;20092;-57
2023/04/07 06:46:10;;;;;;;16.05;14.63;;;;;;;;;;4248818;28;20076;-57
2023/04/07 06:48:31;;;;;;;22.63;18.65;;;;;;;;;;4243372;28;20137;-57
2023/04/07 06:50:51;;;;;;;49.97;22.73;;;;;;;;;;4247520;28;20074;-57
2023/04/07 06:53:12;;;;;;;18.92;15.55;;;;;;;;;;4244957;28;20108;-57
2023/04/07 06:55:32;;;;;;;15.30;13.85;;;;;;;;;;4243252;28;20061;-58
2023/04/07 06:57:52;;;;;;;19.88;18.00;;;;;;;;;;4242128;28;20142;-57
2023/04/07 07:00:13;;;;;;;16.90;14.13;;;;;;;;;;4246564;28;20046;-57
2023/04/07 07:02:34;;;;;;;12.30;11.32;;;;;;;;;;4249089;28;20046;-57
2023/04/07 07:04:54;;;;;;;11.35;10.32;;;;;;;;;;4245438;28;20352;-57
2023/04/07 07:07:14;;;;;;;8.30;7.90;;;;;;;;;;4241934;28;20739;-56
2023/04/07 07:09:35;;;;;;;7.63;7.43;;;;;;;;;;4246131;27;20041;-57
2023/04/07 07:11:56;;;;;;;6.97;6.78;;;;;;;;;;4245770;28;20388;-57
2023/04/07 07:14:16;;;;;;;7.78;7.50;;;;;;;;;;4245348;28;20046;-57
2023/04/07 07:16:36;;;;;;;6.63;6.43;;;;;;;;;;4250772;28;20066;-57
2023/04/07 07:18:56;;;;;;;7.68;7.35;;;;;;;;;;4245372;28;20325;-57
2023/04/07 07:21:17;;;;;;;9.40;8.95;;;;;;;;;;4243767;28;20046;-57
2023/04/07 07:23:37;;;;;;;7.88;7.45;;;;;;;;;;4243258;28;20042;-57
2023/04/07 07:25:57;;;;;;;7.95;7.47;;;;;;;;;;4248477;28;20047;-57
2023/04/07 07:28:17;;;;;;;7.57;7.25;;;;;;;;;;4242217;28;20066;-57
2023/04/07 07:30:40;;;;;;;6.75;6.53;;;;;;;;;;4244175;28;20049;-57
2023/04/07 07:33:00;;;;;;;6.50;6.40;;;;;;;;;;4247973;28;20046;-57
2023/04/07 07:35:20;;;;;;;7.75;7.30;;;;;;;;;;4228526;28;20092;-57
2023/04/07 07:37:43;;;;;;;7.63;7.18;;;;;;;;;;4242060;28;20375;-57
2023/04/07 07:40:03;;;;;;;8.27;7.68;;;;;;;;;;4247478;28;20038;-57
2023/04/07 07:42:23;;;;;;;8.15;7.70;;;;;;;;;;4250363;28;20047;-57
2023/04/07 07:44:43;;;;;;;8.02;7.47;;;;;;;;;;4244206;28;20077;-57
2023/04/07 07:47:04;;;;;;;9.25;8.65;;;;;;;;;;4244323;28;20074;-57
2023/04/07 07:49:24;;;;;;;14.27;12.25;;;;;;;;;;4251326;28;20107;-57
2023/04/07 07:51:45;;;;;;;7.78;7.38;;;;;;;;;;4249722;28;20083;-57
2023/04/07 07:54:06;;;;;;;11.25;7.90;;;;;;;;;;4246470;28;20132;-57
2023/04/07 07:56:26;;;;;;;12.68;11.20;;;;;;;;;;4242633;28;20270;-57
2023/04/07 07:58:46;;;;;;;7.13;6.50;;;;;;;;;;4247352;28;20054;-57
2023/04/07 08:01:06;;;;;;;9.50;8.60;;;;;;;;;;4249306;28;20066;-58
2023/04/07 08:03:26;;;;;;;10.13;9.45;;;;;;;;;;4242785;28;20058;-57
2023/04/07 08:05:48;;;;;;;7.90;7.57;;;;;;;;;;4244880;28;20054;-58
2023/04/07 08:08:08;;;;;;;9.82;9.32;;;;;;;;;;4247459;28;20112;-58
2023/04/07 08:10:28;;;;;;;7.90;7.32;;;;;;;;;;4246806;28;20054;-58
2023/04/07 08:12:48;;;;;;;7.05;6.75;;;;;;;;;;4243004;28;20104;-57
2023/04/07 08:15:09;;;;;;;8.10;7.53;;;;;;;;;;4247747;28;20046;-58
2023/04/07 08:17:29;;;;;;;6.30;5.93;;;;;;;;;;4245661;28;20046;-57
2023/04/07 08:19:50;;;;;;;5.55;5.45;;;;;;;;;;4245068;28;20042;-58
2023/04/07 08:22:10;;;;;;;6.97;6.43;;;;;;;;;;4247804;28;20081;-58
2023/04/07 08:24:30;;;;;;;5.82;5.63;;;;;;;;;;4249128;28;20052;-58
2023/04/07 08:26:50;;;;;;;6.65;6.25;;;;;;;;;;4245779;28;20107;-58
2023/04/07 08:29:10;;;;;;;6.47;6.18;;;;;;;;;;4252581;28;20046;-58
2023/04/07 08:31:30;;;;;;;6.60;6.18;;;;;;;;;;4248284;28;20042;-58
2023/04/07 08:33:56;;;;;;;6.53;6.30;;;;;;;;;;4244709;28;20042;-58
2023/04/07 08:36:17;;;;;;;6.50;6.20;;;;;;;;;;4248307;28;20050;-58
2023/04/07 08:38:37;;;;;;;6.55;6.15;;;;;;;;;;4251700;28;20088;-58
2023/04/07 08:41:27;;;;;;;6.47;5.82;;;;;;;;;;4247860;28;20069;-57
2023/04/07 08:43:48;;;;;;;6.95;6.57;;;;;;;;;;4238073;28;20050;-58
2023/04/07 08:46:10;;;;;;;6.00;5.80;;;;;;;;;;4244231;28;20242;-58
2023/04/07 08:48:33;;;;;;;8.20;7.35;;;;;;;;;;4245538;28;20103;-59
2023/04/07 08:50:54;;;;;;;6.13;5.88;;;;;;;;;;4241721;28;20054;-58
2023/04/07 08:53:18;;;;;;;5.05;4.75;;;;;;;;;;4245768;28;20417;-59
2023/04/07 08:55:40;;;;;;;5.47;5.32;;;;;;;;;;4245455;28;20070;-58
2023/04/07 08:58:00;;;;;;;5.95;5.43;;;;;;;;;;4249466;28;20097;-58
2023/04/07 09:00:22;;;;;;;6.05;5.85;;;;;;;;;;4252526;28;20041;-58
2023/04/07 09:02:47;;;;;;;6.53;6.10;;;;;;;;;;4246372;28;20107;-58
2023/04/07 09:05:08;;;;;;;5.28;5.05;;;;;;;;;;4240434;28;20435;-59
2023/04/07 09:07:28;;;;;;;5.25;5.05;;;;;;;;;;4248219;28;20042;-58
2023/04/07 09:09:48;;;;;;;5.00;4.63;;;;;;;;;;4248548;28;20047;-58
2023/04/07 09:12:08;;;;;;;5.55;5.15;;;;;;;;;;4246485;28;20403;-58
2023/04/07 09:14:28;;;;;;;4.72;4.53;;;;;;;;;;4246088;28;20380;-58
2023/04/07 09:16:49;;;;;;;4.50;4.13;;;;;;;;;;4247261;28;20055;-59
2023/04/07 09:19:09;;;;;;;5.18;4.68;;;;;;;;;;4248946;28;20078;-58
2023/04/07 09:21:48;;;;;;;4.85;4.75;;;;;;;;;;4245721;28;20045;-58
2023/04/07 09:24:25;;;;;;;5.30;5.00;;;;;;;;;;4244196;28;20065;-58
2023/04/07 09:26:45;;;;;;;5.30;4.78;;;;;;;;;;4241254;28;20050;-59
2023/04/07 09:29:06;;;;;;;4.47;4.10;;;;;;;;;;4248188;28;20042;-58
2023/04/07 09:31:46;;;;;;;4.43;4.20;;;;;;;;;;4244248;28;20115;-58
2023/04/07 09:34:22;;;;;;;5.35;5.15;;;;;;;;;;4244804;28;20239;-58
2023/04/07 09:36:42;;;;;;;4.55;4.45;;;;;;;;;;4245672;28;20058;-58
2023/04/07 09:39:07;;;;;;;5.93;5.15;;;;;;;;;;4247746;28;20443;-58
2023/04/07 09:41:28;;;;;;;4.53;4.32;;;;;;;;;;4248416;28;20065;-59
2023/04/07 09:43:48;;;;;;;4.47;4.38;;;;;;;;;;4249596;28;20054;-59
2023/04/07 09:46:17;;;;;;;4.78;4.57;;;;;;;;;;4242145;28;20227;-59
2023/04/07 09:48:38;;;;;;;5.15;4.15;;;;;;;;;;4232962;28;20057;-59
2023/04/07 09:51:05;;;;;;;4.57;4.47;;;;;;;;;;4252139;28;20070;-58
2023/04/07 09:53:40;;;;;;;6.13;5.78;;;;;;;;;;4249952;28;20154;-59
2023/04/07 09:56:01;;;;;;;4.68;4.28;;;;;;;;;;4246241;28;20062;-59
2023/04/07 09:58:21;;;;;;;4.95;4.75;;;;;;;;;;4248085;28;20064;-59
2023/04/07 10:00:42;;;;;;;4.95;4.65;;;;;;;;;;4250707;28;20066;-59
2023/04/07 10:03:03;;;;;;;5.03;4.88;;;;;;;;;;4248686;28;20074;-58
2023/04/07 10:05:23;;;;;;;3.85;3.40;;;;;;;;;;4247300;28;20417;-59
2023/04/07 10:07:43;;;;;;;4.65;4.32;;;;;;;;;;4249393;28;20374;-59
2023/04/07 10:10:06;;;;;;;4.45;4.18;;;;;;;;;;4250950;28;20046;-59
2023/04/07 10:12:27;;;;;;;3.90;3.70;;;;;;;;;;4249266;28;20050;-59
2023/04/07 10:14:48;;;;;;;4.75;4.35;;;;;;;;;;4250947;28;20084;-59
2023/04/07 10:17:08;;;;;;;4.93;4.70;;;;;;;;;;4247688;28;20062;-59
2023/04/07 10:19:32;;;;;;;4.40;4.20;;;;;;;;;;4245561;28;20084;-58
2023/04/07 10:21:54;;;;;;;5.43;5.22;;;;;;;;;;4229074;28;20050;-58
2023/04/07 10:24:30;;;;;;;4.13;3.88;;;;;;;;;;4247114;28;20034;-59
2023/04/07 10:26:56;;;;;;;4.30;4.10;;;;;;;;;;4247291;28;20050;-59
2023/04/07 10:29:18;;;;;;;4.88;4.57;;;;;;;;;;4246513;28;20085;-59
2023/04/07 10:31:38;;;;;;;4.70;4.50;;;;;;;;;;4247093;28;20043;-59
2023/04/07 10:34:00;;;;;;;3.85;3.70;;;;;;;;;;4248960;28;20089;-59
2023/04/07 10:36:21;;;;;;;4.50;4.20;;;;;;;;;;4245248;28;20042;-59
2023/04/07 10:38:41;;;;;;;3.60;3.45;;;;;;;;;;4244539;28;20042;-58
2023/04/07 10:41:21;;;;;;;6.32;4.30;;;;;;;;;;4247850;28;20395;-58
2023/04/07 10:43:43;;;;;;;5.28;5.07;;;;;;;;;;4249983;27;20077;-59
2023/04/07 10:46:03;;;;;;;4.07;3.88;;;;;;;;;;4243767;28;20058;-59
2023/04/07 10:48:23;;;;;;;4.07;3.97;;;;;;;;;;4243200;28;20272;-59
2023/04/07 10:51:09;;;;;;;3.80;3.60;;;;;;;;;;4246139;28;20404;-58
2023/04/07 10:53:30;;;;;;;2.92;2.78;;;;;;;;;;4247557;28;20101;-59
2023/04/07 10:55:54;;;;;;;2.83;2.72;;;;;;;;;;4243370;28;20047;-59
2023/04/07 10:58:21;;;;;;;3.72;3.53;;;;;;;;;;4247825;28;20238;-59
2023/04/07 11:00:42;;;;;;;3.42;3.13;;;;;;;;;;4244789;28;20042;-59
2023/04/07 11:03:11;;;;;;;3.47;3.17;;;;;;;;;;4245942;28;20046;-58
2023/04/07 11:05:32;;;;;;;3.42;3.33;;;;;;;;;;4252287;28;20050;-59
2023/04/07 11:07:58;;;;;;;2.85;2.70;;;;;;;;;;4243237;28;20054;-58
2023/04/07 11:10:19;;;;;;;3.38;3.28;;;;;;;;;;4243058;28;20042;-59
2023/04/07 11:12:39;;;;;;;3.60;3.50;;;;;;;;;;4248398;28;20050;-59
2023/04/07 11:15:15;;;;;;;5.50;2.85;;;;;;;;;;4246489;28;20273;-59
2023/04/07 11:17:36;;;;;;;2.95;2.85;;;;;;;;;;4246343;28;20043;-59
2023/04/07 11:19:57;;;;;;;3.00;2.90;;;;;;;;;;4244034;28;20080;-59
2023/04/07 11:22:17;;;;;;;3.13;2.83;;;;;;;;;;4249302;28;20261;-59
2023/04/07 11:24:49;;;;;;;2.65;2.45;;;;;;;;;;4246207;28;20080;-59
2023/04/07 11:27:13;;;;;;;4.95;2.63;;;;;;;;;;4245608;28;20354;-59
2023/04/07 11:29:34;;;;;;;2.60;2.55;;;;;;;;;;4247419;28;20038;-59
2023/04/07 11:31:55;;;;;;;2.70;2.60;;;;;;;;;;4243693;28;20050;-59
2023/04/07 11:34:15;;;;;;;4.13;3.60;;;;;;;;;;4245017;28;20042;-59
2023/04/07 11:36:39;;;;;;;4.72;2.88;;;;;;;;;;4243367;28;20088;-59
2023/04/07 11:39:01;;;;;;;3.10;2.55;;;;;;;;;;4250637;28;20046;-59
2023/04/07 11:41:21;;;;;;;3.03;2.92;;;;;;;;;;4242788;28;20251;-59
2023/04/07 11:43:41;;;;;;;5.85;3.30;;;;;;;;;;4242130;28;20058;-58
2023/04/07 11:46:15;;;;;;;2.47;2.38;;;;;;;;;;4248392;28;20039;-59
2023/04/07 11:48:35;;;;;;;;;;;;;;;;;;4247979;28;20081;-59
2023/04/07 11:50:56;;;;;;;3.08;2.85;;;;;;;;;;4253711;28;19923;-59
2023/04/07 11:53:25;;;;;;;3.10;2.75;;;;;;;;;;4251406;28;20410;-60
2023/04/07 11:55:45;;;;;;;3.00;2.90;;;;;;;;;;4253546;27;20042;-59
2023/04/07 11:58:08;;;;;;;2.80;2.60;;;;;;;;;;4245430;28;20081;-59
2023/04/07 12:00:28;;;;;;;2.75;2.65;;;;;;;;;;4250984;28;20111;-59
2023/04/07 12:02:48;;;;;;;2.70;2.60;;;;;;;;;;4254118;28;20046;-59
2023/04/07 12:05:09;;;;;;;3.15;2.95;;;;;;;;;;4249112;28;20072;-59
2023/04/07 12:07:30;;;;;;;3.17;2.30;;;;;;;;;;4249957;28;20042;-59
2023/04/07 12:09:50;;;;;;;2.88;2.80;;;;;;;;;;4252003;28;20043;-59
2023/04/07 12:12:11;;;;;;;2.63;2.42;;;;;;;;;;4254034;28;20047;-59
2023/04/07 12:14:31;;;;;;;3.30;3.20;;;;;;;;;;4245442;28;20050;-59
2023/04/07 12:16:54;;;;;;;3.20;3.00;;;;;;;;;;4249916;28;20055;-59
2023/04/07 12:19:15;;;;;;;2.30;2.20;;;;;;;;;;4252733;28;20097;-59
2023/04/07 12:21:35;;;;;;;3.05;2.95;;;;;;;;;;4249651;28;20043;-59
2023/04/07 12:23:55;;;;;;;2.55;2.55;;;;;;;;;;4247854;28;20063;-61
2023/04/07 12:26:15;;;;;;;3.03;2.92;;;;;;;;;;4251757;28;20077;-60
2023/04/07 12:28:36;;;;;;;2.97;2.45;;;;;;;;;;4249836;28;20062;-61
2023/04/07 12:30:57;;;;;;;3.58;3.47;;;;;;;;;;4246603;28;20051;-60
2023/04/07 12:33:17;;;;;;;2.63;2.42;;;;;;;;;;4248857;28;20046;-60
2023/04/07 12:35:38;;;;;;;3.45;3.35;;;;;;;;;;4250026;28;20050;-60
2023/04/07 12:37:58;;;;;;;3.15;3.05;;;;;;;;;;4243956;28;20050;-61
2023/04/07 12:40:18;;;;;;;2.92;2.80;;;;;;;;;;4249923;28;20077;-61
2023/04/07 12:42:39;;;;;;;3.10;3.00;;;;;;;;;;4249430;28;20046;-61
2023/04/07 12:44:59;;;;;;;2.45;2.35;;;;;;;;;;4246166;28;20082;-60
2023/04/07 12:47:19;;;;;;;2.30;2.03;;;;;;;;;;4244295;28;20115;-60
2023/04/07 12:49:39;;;;;;;3.40;2.70;;;;;;;;;;4245922;28;20037;-61
2023/04/07 12:52:00;;;;;;;2.53;2.17;;;;;;;;;;4248661;28;20084;-60
2023/04/07 12:54:20;;;;;;;2.22;2.00;;;;;;;;;;4246572;28;20109;-60
2023/04/07 12:56:41;;;;;;;2.30;2.20;;;;;;;;;;4244948;28;20046;-61
2023/04/07 12:59:01;;;;;;;3.75;2.72;;;;;;;;;;4246461;28;20047;-60
2023/04/07 13:01:21;;;;;;;2.60;2.33;;;;;;;;;;4247040;28;20156;-60
2023/04/07 13:03:41;;;;;;;1.98;1.98;;;;;;;;;;4245776;28;20353;-60
2023/04/07 13:06:03;;;;;;;2.38;2.25;;;;;;;;;;4246074;28;20374;-60
2023/04/07 13:08:23;;;;;;;3.45;3.25;;;;;;;;;;4245616;28;20112;-61
2023/04/07 13:10:44;;;;;;;1.90;1.90;;;;;;;;;;4245266;28;20046;-61
2023/04/07 13:13:04;;;;;;;2.40;2.30;;;;;;;;;;4248280;28;20138;-60
2023/04/07 13:15:24;;;;;;;2.97;2.88;;;;;;;;;;4246520;28;20117;-61
2023/04/07 13:17:44;;;;;;;3.40;3.25;;;;;;;;;;4247804;28;20078;-61
2023/04/07 13:20:05;;;;;;;3.53;3.40;;;;;;;;;;4246497;28;20374;-60
2023/04/07 13:22:25;;;;;;;3.05;2.83;;;;;;;;;;4251147;28;20042;-60
2023/04/07 13:24:46;;;;;;;2.47;2.38;;;;;;;;;;4248648;28;20377;-60
2023/04/07 13:27:06;;;;;;;2.65;2.55;;;;;;;;;;4245639;28;20314;-61
2023/04/07 13:29:26;;;;;;;2.10;2.00;;;;;;;;;;4248319;28;20049;-61
2023/04/07 13:31:47;;;;;;;3.20;3.10;;;;;;;;;;4248935;28;20227;-61
2023/04/07 13:34:07;;;;;;;3.58;3.47;;;;;;;;;;4243815;28;20107;-61
2023/04/07 13:36:28;;;;;;;4.93;3.03;;;;;;;;;;4246150;27;20385;-60
2023/04/07 13:38:48;;;;;;;2.72;2.63;;;;;;;;;;4246579;28;20074;-60
2023/04/07 13:41:08;;;;;;;2.00;1.90;;;;;;;;;;4246979;28;20050;-60
2023/04/07 13:43:29;;;;;;;3.03;2.92;;;;;;;;;;4252305;28;20327;-60
2023/04/07 13:45:49;;;;;;;3.72;3.38;;;;;;;;;;4252660;28;20235;-60
2023/04/07 13:48:10;;;;;;;3.95;3.85;;;;;;;;;;4241965;28;20050;-60
2023/04/07 13:50:30;;;;;;;3.00;2.80;;;;;;;;;;4245942;28;20324;-60
2023/04/07 13:52:50;;;;;;;2.55;2.45;;;;;;;;;;4250072;28;20108;-60
2023/04/07 13:55:10;;;;;;;2.50;2.40;;;;;;;;;;4246333;28;20256;-60
2023/04/07 13:57:31;;;;;;;2.40;2.30;;;;;;;;;;4243835;28;20277;-61